sensor_id;sensor_type;location;lat;lon;timestamp;P1;durP1;ratioP1;P2;durP2;ratioP2
10467;SDS011;5281;48.878;9.394;2023-02-28T00:00:53;3.00;;;1.77;;
10467;SDS011;5281;48.878;9.394;2023-02-28T00:03:21;4.43;;;2.07;;
10467;SDS011;5281;48.878;9.394;2023-02-28T00:05:48;2.80;;;1.80;;
10467;SDS011;5281;48.878;9.394;2023-02-28T00:08:14;2.37;;;1.70;;
10467;SDS011;5281;48.878;9.394;2023-02-28T00:10:41;3.67;;;1.97;;
10467;SDS011;5281;48.878;9.394;2023-02-28T00:13:08;3.73;;;2.40;;
10467;SDS011;5281;48.878;9.394;2023-02-28T00:15:35;5.77;;;2.20;;
10467;SDS011;5281;48.878;9.394;2023-02-28T00:18:02;2.90;;;1.93;;
10467;SDS011;5281;48.878;9.394;2023-02-28T00:20:30;3.20;;;1.70;;
10467;SDS011;5281;48.878;9.394;2023-02-28T00:22:57;3.07;;;2.00;;
10467;SDS011;5281;48.878;9.394;2023-02-28T00:25:24;2.33;;;1.90;;
10467;SDS011;5281;48.878;9.394;2023-02-28T00:27:51;2.70;;;1.80;;
10467;SDS011;5281;48.878;9.394;2023-02-28T00:30:19;2.67;;;2.20;;
10467;SDS011;5281;48.878;9.394;2023-02-28T00:32:47;2.23;;;2.00;;
10467;SDS011;5281;48.878;9.394;2023-02-28T00:35:14;3.03;;;2.20;;
10467;SDS011;5281;48.878;9.394;2023-02-28T00:37:42;3.20;;;2.20;;
10467;SDS011;5281;48.878;9.394;2023-02-28T00:40:09;2.93;;;2.17;;
10467;SDS011;5281;48.878;9.394;2023-02-28T00:42:37;2.87;;;2.00;;
10467;SDS011;5281;48.878;9.394;2023-02-28T00:45:05;4.23;;;2.23;;
10467;SDS011;5281;48.878;9.394;2023-02-28T00:47:32;4.23;;;2.20;;
10467;SDS011;5281;48.878;9.394;2023-02-28T00:49:59;3.67;;;2.03;;
10467;SDS011;5281;48.878;9.394;2023-02-28T00:52:26;3.67;;;2.53;;
10467;SDS011;5281;48.878;9.394;2023-02-28T00:54:54;3.93;;;2.53;;
10467;SDS011;5281;48.878;9.394;2023-02-28T00:57:21;3.70;;;2.23;;
10467;SDS011;5281;48.878;9.394;2023-02-28T00:59:48;3.67;;;2.37;;
10467;SDS011;5281;48.878;9.394;2023-02-28T01:02:15;3.43;;;2.60;;
10467;SDS011;5281;48.878;9.394;2023-02-28T01:04:43;4.07;;;2.40;;
10467;SDS011;5281;48.878;9.394;2023-02-28T01:07:09;4.83;;;2.60;;
10467;SDS011;5281;48.878;9.394;2023-02-28T01:09:36;5.33;;;2.40;;
10467;SDS011;5281;48.878;9.394;2023-02-28T01:12:04;3.40;;;2.50;;
10467;SDS011;5281;48.878;9.394;2023-02-28T01:14:32;3.53;;;2.20;;
10467;SDS011;5281;48.878;9.394;2023-02-28T01:16:59;7.00;;;2.23;;
10467;SDS011;5281;48.878;9.394;2023-02-28T01:19:26;2.87;;;2.10;;
10467;SDS011;5281;48.878;9.394;2023-02-28T01:21:53;2.67;;;2.20;;
10467;SDS011;5281;48.878;9.394;2023-02-28T01:24:19;4.23;;;2.40;;
10467;SDS011;5281;48.878;9.394;2023-02-28T01:26:46;6.23;;;2.37;;
10467;SDS011;5281;48.878;9.394;2023-02-28T01:29:14;3.57;;;2.40;;
10467;SDS011;5281;48.878;9.394;2023-02-28T01:31:41;4.57;;;2.70;;
10467;SDS011;5281;48.878;9.394;2023-02-28T01:34:08;3.07;;;2.37;;
10467;SDS011;5281;48.878;9.394;2023-02-28T01:36:35;5.90;;;2.47;;
10467;SDS011;5281;48.878;9.394;2023-02-28T01:39:02;4.37;;;2.53;;
10467;SDS011;5281;48.878;9.394;2023-02-28T01:41:30;5.00;;;2.87;;
10467;SDS011;5281;48.878;9.394;2023-02-28T01:44:00;3.70;;;2.93;;
10467;SDS011;5281;48.878;9.394;2023-02-28T01:46:31;5.10;;;2.30;;
10467;SDS011;5281;48.878;9.394;2023-02-28T01:49:00;5.00;;;2.87;;
10467;SDS011;5281;48.878;9.394;2023-02-28T01:51:31;4.63;;;2.90;;
10467;SDS011;5281;48.878;9.394;2023-02-28T01:54:03;4.03;;;2.70;;
10467;SDS011;5281;48.878;9.394;2023-02-28T01:56:38;3.33;;;2.50;;
10467;SDS011;5281;48.878;9.394;2023-02-28T01:59:09;3.90;;;2.70;;
10467;SDS011;5281;48.878;9.394;2023-02-28T02:01:39;6.20;;;2.80;;
10467;SDS011;5281;48.878;9.394;2023-02-28T02:04:06;4.77;;;3.10;;
10467;SDS011;5281;48.878;9.394;2023-02-28T02:06:34;4.43;;;2.80;;
10467;SDS011;5281;48.878;9.394;2023-02-28T02:09:04;4.23;;;3.00;;
10467;SDS011;5281;48.878;9.394;2023-02-28T02:11:31;5.10;;;3.00;;
10467;SDS011;5281;48.878;9.394;2023-02-28T02:14:02;4.53;;;3.30;;
10467;SDS011;5281;48.878;9.394;2023-02-28T02:16:47;3.33;;;2.40;;
10467;SDS011;5281;48.878;9.394;2023-02-28T02:19:29;4.17;;;2.87;;
10467;SDS011;5281;48.878;9.394;2023-02-28T02:22:29;4.07;;;2.73;;
10467;SDS011;5281;48.878;9.394;2023-02-28T02:25:21;7.23;;;2.87;;
10467;SDS011;5281;48.878;9.394;2023-02-28T02:28:00;4.00;;;2.80;;
10467;SDS011;5281;48.878;9.394;2023-02-28T02:30:58;4.53;;;2.60;;
10467;SDS011;5281;48.878;9.394;2023-02-28T02:37:03;4.27;;;2.93;;
10467;SDS011;5281;48.878;9.394;2023-02-28T02:39:40;6.47;;;3.00;;
10467;SDS011;5281;48.878;9.394;2023-02-28T02:42:14;3.93;;;2.83;;
10467;SDS011;5281;48.878;9.394;2023-02-28T02:44:46;4.17;;;2.90;;
10467;SDS011;5281;48.878;9.394;2023-02-28T02:47:17;3.63;;;3.00;;
10467;SDS011;5281;48.878;9.394;2023-02-28T02:49:47;5.77;;;3.30;;
10467;SDS011;5281;48.878;9.394;2023-02-28T02:52:18;5.17;;;3.10;;
10467;SDS011;5281;48.878;9.394;2023-02-28T02:54:49;6.23;;;3.20;;
10467;SDS011;5281;48.878;9.394;2023-02-28T02:57:20;6.00;;;3.30;;
10467;SDS011;5281;48.878;9.394;2023-02-28T02:59:49;5.43;;;3.07;;
10467;SDS011;5281;48.878;9.394;2023-02-28T03:02:19;4.07;;;3.27;;
10467;SDS011;5281;48.878;9.394;2023-02-28T03:04:50;3.97;;;3.33;;
10467;SDS011;5281;48.878;9.394;2023-02-28T03:07:18;3.73;;;3.20;;
10467;SDS011;5281;48.878;9.394;2023-02-28T03:09:50;4.37;;;3.03;;
10467;SDS011;5281;48.878;9.394;2023-02-28T03:12:18;3.90;;;2.90;;
10467;SDS011;5281;48.878;9.394;2023-02-28T03:14:49;4.53;;;3.10;;
10467;SDS011;5281;48.878;9.394;2023-02-28T03:17:28;6.13;;;3.20;;
10467;SDS011;5281;48.878;9.394;2023-02-28T03:20:08;4.93;;;3.50;;
10467;SDS011;5281;48.878;9.394;2023-02-28T03:22:45;5.17;;;3.47;;
10467;SDS011;5281;48.878;9.394;2023-02-28T03:25:18;4.77;;;3.23;;
10467;SDS011;5281;48.878;9.394;2023-02-28T03:27:54;6.03;;;3.50;;
10467;SDS011;5281;48.878;9.394;2023-02-28T03:30:27;5.20;;;3.50;;
10467;SDS011;5281;48.878;9.394;2023-02-28T03:33:03;5.30;;;3.30;;
10467;SDS011;5281;48.878;9.394;2023-02-28T03:35:36;4.57;;;3.13;;
10467;SDS011;5281;48.878;9.394;2023-02-28T03:38:05;5.57;;;3.70;;
10467;SDS011;5281;48.878;9.394;2023-02-28T03:40:39;5.57;;;3.50;;
10467;SDS011;5281;48.878;9.394;2023-02-28T03:43:10;4.23;;;3.50;;
10467;SDS011;5281;48.878;9.394;2023-02-28T03:45:41;3.90;;;3.37;;
10467;SDS011;5281;48.878;9.394;2023-02-28T03:48:12;5.17;;;3.53;;
10467;SDS011;5281;48.878;9.394;2023-02-28T03:50:43;4.90;;;3.27;;
10467;SDS011;5281;48.878;9.394;2023-02-28T03:53:16;5.87;;;3.50;;
10467;SDS011;5281;48.878;9.394;2023-02-28T03:55:45;5.30;;;3.23;;
10467;SDS011;5281;48.878;9.394;2023-02-28T03:58:17;5.97;;;3.20;;
10467;SDS011;5281;48.878;9.394;2023-02-28T04:00:51;5.00;;;3.60;;
10467;SDS011;5281;48.878;9.394;2023-02-28T04:03:23;5.53;;;3.50;;
10467;SDS011;5281;48.878;9.394;2023-02-28T04:05:51;4.73;;;3.23;;
10467;SDS011;5281;48.878;9.394;2023-02-28T04:08:20;5.30;;;3.50;;
10467;SDS011;5281;48.878;9.394;2023-02-28T04:10:50;5.17;;;3.80;;
10467;SDS011;5281;48.878;9.394;2023-02-28T04:13:21;4.10;;;3.20;;
10467;SDS011;5281;48.878;9.394;2023-02-28T04:15:48;4.50;;;3.80;;
10467;SDS011;5281;48.878;9.394;2023-02-28T04:18:15;3.80;;;3.20;;
10467;SDS011;5281;48.878;9.394;2023-02-28T04:20:42;6.40;;;3.70;;
10467;SDS011;5281;48.878;9.394;2023-02-28T04:23:10;4.67;;;3.50;;
10467;SDS011;5281;48.878;9.394;2023-02-28T04:25:37;5.27;;;3.53;;
10467;SDS011;5281;48.878;9.394;2023-02-28T04:28:05;6.67;;;3.77;;
10467;SDS011;5281;48.878;9.394;2023-02-28T04:30:32;5.17;;;3.80;;
10467;SDS011;5281;48.878;9.394;2023-02-28T04:32:59;7.80;;;3.90;;
10467;SDS011;5281;48.878;9.394;2023-02-28T04:35:26;5.60;;;3.70;;
10467;SDS011;5281;48.878;9.394;2023-02-28T04:37:52;4.77;;;4.03;;
10467;SDS011;5281;48.878;9.394;2023-02-28T04:40:20;4.83;;;3.73;;
10467;SDS011;5281;48.878;9.394;2023-02-28T04:42:47;4.90;;;3.60;;
10467;SDS011;5281;48.878;9.394;2023-02-28T04:45:14;7.50;;;3.87;;
10467;SDS011;5281;48.878;9.394;2023-02-28T04:47:42;4.57;;;3.73;;
10467;SDS011;5281;48.878;9.394;2023-02-28T04:50:09;4.40;;;3.87;;
10467;SDS011;5281;48.878;9.394;2023-02-28T04:52:36;5.87;;;3.93;;
10467;SDS011;5281;48.878;9.394;2023-02-28T04:55:03;5.13;;;3.80;;
10467;SDS011;5281;48.878;9.394;2023-02-28T04:57:32;6.00;;;4.50;;
10467;SDS011;5281;48.878;9.394;2023-02-28T04:59:59;5.30;;;4.07;;
10467;SDS011;5281;48.878;9.394;2023-02-28T05:02:26;5.63;;;4.00;;
10467;SDS011;5281;48.878;9.394;2023-02-28T05:04:52;7.90;;;4.07;;
10467;SDS011;5281;48.878;9.394;2023-02-28T05:07:19;5.60;;;4.00;;
10467;SDS011;5281;48.878;9.394;2023-02-28T05:09:46;5.03;;;4.13;;
10467;SDS011;5281;48.878;9.394;2023-02-28T05:12:12;5.73;;;4.20;;
10467;SDS011;5281;48.878;9.394;2023-02-28T05:14:40;6.57;;;4.23;;
10467;SDS011;5281;48.878;9.394;2023-02-28T05:17:08;6.23;;;3.87;;
10467;SDS011;5281;48.878;9.394;2023-02-28T05:19:35;6.73;;;4.07;;
10467;SDS011;5281;48.878;9.394;2023-02-28T05:22:01;5.67;;;4.53;;
10467;SDS011;5281;48.878;9.394;2023-02-28T05:24:28;5.43;;;3.67;;
10467;SDS011;5281;48.878;9.394;2023-02-28T05:26:55;6.80;;;4.23;;
10467;SDS011;5281;48.878;9.394;2023-02-28T05:29:22;6.03;;;3.67;;
10467;SDS011;5281;48.878;9.394;2023-02-28T05:31:50;6.43;;;4.20;;
10467;SDS011;5281;48.878;9.394;2023-02-28T05:34:17;6.37;;;4.20;;
10467;SDS011;5281;48.878;9.394;2023-02-28T05:36:44;5.43;;;4.37;;
10467;SDS011;5281;48.878;9.394;2023-02-28T05:39:11;6.90;;;4.40;;
10467;SDS011;5281;48.878;9.394;2023-02-28T05:41:39;5.27;;;4.00;;
10467;SDS011;5281;48.878;9.394;2023-02-28T05:44:06;5.23;;;4.00;;
10467;SDS011;5281;48.878;9.394;2023-02-28T05:46:33;8.60;;;4.10;;
10467;SDS011;5281;48.878;9.394;2023-02-28T05:49:03;5.20;;;4.03;;
10467;SDS011;5281;48.878;9.394;2023-02-28T05:51:30;6.00;;;4.37;;
10467;SDS011;5281;48.878;9.394;2023-02-28T05:54:00;4.87;;;3.90;;
10467;SDS011;5281;48.878;9.394;2023-02-28T05:56:27;9.00;;;4.40;;
10467;SDS011;5281;48.878;9.394;2023-02-28T05:58:54;5.37;;;4.33;;
10467;SDS011;5281;48.878;9.394;2023-02-28T06:01:31;4.87;;;3.80;;
10467;SDS011;5281;48.878;9.394;2023-02-28T06:04:02;6.50;;;4.20;;
10467;SDS011;5281;48.878;9.394;2023-02-28T06:06:30;5.67;;;4.40;;
10467;SDS011;5281;48.878;9.394;2023-02-28T06:08:59;6.37;;;4.50;;
10467;SDS011;5281;48.878;9.394;2023-02-28T06:11:26;5.90;;;4.50;;
10467;SDS011;5281;48.878;9.394;2023-02-28T06:13:53;6.67;;;4.30;;
10467;SDS011;5281;48.878;9.394;2023-02-28T06:16:21;6.67;;;4.60;;
10467;SDS011;5281;48.878;9.394;2023-02-28T06:18:48;6.10;;;4.00;;
10467;SDS011;5281;48.878;9.394;2023-02-28T06:21:16;7.57;;;5.00;;
10467;SDS011;5281;48.878;9.394;2023-02-28T06:23:43;6.97;;;4.33;;
10467;SDS011;5281;48.878;9.394;2023-02-28T06:26:09;7.97;;;4.63;;
10467;SDS011;5281;48.878;9.394;2023-02-28T06:28:36;6.17;;;4.20;;
10467;SDS011;5281;48.878;9.394;2023-02-28T06:31:06;6.03;;;4.50;;
10467;SDS011;5281;48.878;9.394;2023-02-28T06:33:34;6.27;;;4.50;;
10467;SDS011;5281;48.878;9.394;2023-02-28T06:36:01;6.67;;;4.33;;
10467;SDS011;5281;48.878;9.394;2023-02-28T06:38:29;6.17;;;4.20;;
10467;SDS011;5281;48.878;9.394;2023-02-28T06:40:57;7.33;;;4.80;;
10467;SDS011;5281;48.878;9.394;2023-02-28T06:43:25;8.27;;;4.27;;
10467;SDS011;5281;48.878;9.394;2023-02-28T06:45:55;6.40;;;4.43;;
10467;SDS011;5281;48.878;9.394;2023-02-28T06:48:22;8.43;;;4.40;;
10467;SDS011;5281;48.878;9.394;2023-02-28T06:50:50;8.17;;;4.73;;
10467;SDS011;5281;48.878;9.394;2023-02-28T06:53:16;8.77;;;5.33;;
10467;SDS011;5281;48.878;9.394;2023-02-28T06:55:44;7.77;;;5.00;;
10467;SDS011;5281;48.878;9.394;2023-02-28T06:58:11;7.73;;;5.00;;
10467;SDS011;5281;48.878;9.394;2023-02-28T07:00:40;6.87;;;4.77;;
10467;SDS011;5281;48.878;9.394;2023-02-28T07:03:07;9.27;;;4.90;;
10467;SDS011;5281;48.878;9.394;2023-02-28T07:05:34;7.03;;;4.90;;
10467;SDS011;5281;48.878;9.394;2023-02-28T07:08:01;7.33;;;4.60;;
10467;SDS011;5281;48.878;9.394;2023-02-28T07:10:28;6.67;;;5.00;;
10467;SDS011;5281;48.878;9.394;2023-02-28T07:12:56;9.97;;;4.93;;
10467;SDS011;5281;48.878;9.394;2023-02-28T07:15:23;7.00;;;4.83;;
10467;SDS011;5281;48.878;9.394;2023-02-28T07:17:50;6.87;;;4.80;;
10467;SDS011;5281;48.878;9.394;2023-02-28T07:20:17;6.77;;;5.10;;
10467;SDS011;5281;48.878;9.394;2023-02-28T07:22:43;6.50;;;5.00;;
10467;SDS011;5281;48.878;9.394;2023-02-28T07:25:10;6.23;;;4.73;;
10467;SDS011;5281;48.878;9.394;2023-02-28T07:27:37;7.50;;;5.10;;
10467;SDS011;5281;48.878;9.394;2023-02-28T07:30:05;7.40;;;4.67;;
10467;SDS011;5281;48.878;9.394;2023-02-28T07:32:34;6.80;;;5.17;;
10467;SDS011;5281;48.878;9.394;2023-02-28T07:35:03;7.07;;;4.83;;
10467;SDS011;5281;48.878;9.394;2023-02-28T07:37:29;7.53;;;5.23;;
10467;SDS011;5281;48.878;9.394;2023-02-28T07:40:01;6.73;;;5.00;;
10467;SDS011;5281;48.878;9.394;2023-02-28T07:42:31;6.73;;;4.90;;
10467;SDS011;5281;48.878;9.394;2023-02-28T07:44:58;8.67;;;5.40;;
10467;SDS011;5281;48.878;9.394;2023-02-28T07:47:26;7.20;;;5.10;;
10467;SDS011;5281;48.878;9.394;2023-02-28T07:49:54;12.17;;;5.97;;
10467;SDS011;5281;48.878;9.394;2023-02-28T07:52:21;8.33;;;5.77;;
10467;SDS011;5281;48.878;9.394;2023-02-28T07:54:49;11.03;;;5.90;;
10467;SDS011;5281;48.878;9.394;2023-02-28T07:57:16;11.33;;;6.27;;
10467;SDS011;5281;48.878;9.394;2023-02-28T07:59:43;7.50;;;5.87;;
10467;SDS011;5281;48.878;9.394;2023-02-28T08:02:10;8.63;;;5.50;;
10467;SDS011;5281;48.878;9.394;2023-02-28T08:04:39;7.80;;;5.77;;
10467;SDS011;5281;48.878;9.394;2023-02-28T08:07:06;6.27;;;4.80;;
10467;SDS011;5281;48.878;9.394;2023-02-28T08:09:34;7.23;;;5.53;;
10467;SDS011;5281;48.878;9.394;2023-02-28T08:12:01;8.30;;;5.53;;
10467;SDS011;5281;48.878;9.394;2023-02-28T08:14:28;7.13;;;5.47;;
10467;SDS011;5281;48.878;9.394;2023-02-28T08:16:55;10.10;;;5.67;;
10467;SDS011;5281;48.878;9.394;2023-02-28T08:19:21;7.50;;;5.33;;
10467;SDS011;5281;48.878;9.394;2023-02-28T08:21:50;6.53;;;5.07;;
10467;SDS011;5281;48.878;9.394;2023-02-28T08:24:16;6.63;;;5.50;;
10467;SDS011;5281;48.878;9.394;2023-02-28T08:26:43;9.83;;;5.33;;
10467;SDS011;5281;48.878;9.394;2023-02-28T08:29:10;9.63;;;5.37;;
10467;SDS011;5281;48.878;9.394;2023-02-28T08:31:37;7.53;;;5.40;;
10467;SDS011;5281;48.878;9.394;2023-02-28T08:34:04;7.77;;;5.60;;
10467;SDS011;5281;48.878;9.394;2023-02-28T08:36:32;6.50;;;5.17;;
10467;SDS011;5281;48.878;9.394;2023-02-28T08:39:00;9.80;;;6.17;;
10467;SDS011;5281;48.878;9.394;2023-02-28T08:41:27;10.47;;;6.13;;
10467;SDS011;5281;48.878;9.394;2023-02-28T08:43:53;7.40;;;5.93;;
10467;SDS011;5281;48.878;9.394;2023-02-28T08:46:20;8.57;;;5.77;;
10467;SDS011;5281;48.878;9.394;2023-02-28T08:48:47;9.90;;;5.60;;
10467;SDS011;5281;48.878;9.394;2023-02-28T08:51:17;9.07;;;6.10;;
10467;SDS011;5281;48.878;9.394;2023-02-28T08:53:51;10.30;;;6.03;;
10467;SDS011;5281;48.878;9.394;2023-02-28T08:56:19;7.23;;;5.20;;
10467;SDS011;5281;48.878;9.394;2023-02-28T08:58:47;7.23;;;5.60;;
10467;SDS011;5281;48.878;9.394;2023-02-28T09:01:15;8.93;;;5.70;;
10467;SDS011;5281;48.878;9.394;2023-02-28T09:03:43;10.90;;;6.00;;
10467;SDS011;5281;48.878;9.394;2023-02-28T09:06:12;7.60;;;5.53;;
10467;SDS011;5281;48.878;9.394;2023-02-28T09:08:39;6.97;;;5.63;;
10467;SDS011;5281;48.878;9.394;2023-02-28T09:11:06;8.13;;;5.87;;
10467;SDS011;5281;48.878;9.394;2023-02-28T09:13:35;7.57;;;5.73;;
10467;SDS011;5281;48.878;9.394;2023-02-28T09:16:03;8.47;;;5.73;;
10467;SDS011;5281;48.878;9.394;2023-02-28T09:18:31;7.10;;;5.40;;
10467;SDS011;5281;48.878;9.394;2023-02-28T09:20:59;9.77;;;5.70;;
10467;SDS011;5281;48.878;9.394;2023-02-28T09:23:29;6.60;;;5.20;;
10467;SDS011;5281;48.878;9.394;2023-02-28T09:25:56;8.80;;;5.77;;
10467;SDS011;5281;48.878;9.394;2023-02-28T09:28:23;7.00;;;5.43;;
10467;SDS011;5281;48.878;9.394;2023-02-28T09:30:52;7.23;;;5.83;;
10467;SDS011;5281;48.878;9.394;2023-02-28T09:33:21;8.03;;;5.70;;
10467;SDS011;5281;48.878;9.394;2023-02-28T09:35:48;7.77;;;6.17;;
10467;SDS011;5281;48.878;9.394;2023-02-28T09:38:15;7.53;;;5.53;;
10467;SDS011;5281;48.878;9.394;2023-02-28T09:40:45;9.50;;;5.90;;
10467;SDS011;5281;48.878;9.394;2023-02-28T09:43:15;12.27;;;6.33;;
10467;SDS011;5281;48.878;9.394;2023-02-28T09:45:47;12.57;;;6.40;;
10467;SDS011;5281;48.878;9.394;2023-02-28T09:48:20;9.87;;;5.90;;
10467;SDS011;5281;48.878;9.394;2023-02-28T09:50:51;12.07;;;5.60;;
10467;SDS011;5281;48.878;9.394;2023-02-28T09:53:22;8.30;;;6.20;;
10467;SDS011;5281;48.878;9.394;2023-02-28T09:55:58;10.20;;;5.60;;
10467;SDS011;5281;48.878;9.394;2023-02-28T09:58:31;14.00;;;6.67;;
10467;SDS011;5281;48.878;9.394;2023-02-28T10:01:03;8.50;;;6.10;;
10467;SDS011;5281;48.878;9.394;2023-02-28T10:03:36;7.90;;;5.90;;
10467;SDS011;5281;48.878;9.394;2023-02-28T10:06:07;9.37;;;6.00;;
10467;SDS011;5281;48.878;9.394;2023-02-28T10:08:40;7.37;;;5.83;;
10467;SDS011;5281;48.878;9.394;2023-02-28T10:11:14;9.03;;;5.97;;
10467;SDS011;5281;48.878;9.394;2023-02-28T10:13:46;9.27;;;6.47;;
10467;SDS011;5281;48.878;9.394;2023-02-28T10:16:20;8.37;;;6.10;;
10467;SDS011;5281;48.878;9.394;2023-02-28T10:18:54;7.07;;;5.70;;
10467;SDS011;5281;48.878;9.394;2023-02-28T10:21:24;15.00;;;6.50;;
10467;SDS011;5281;48.878;9.394;2023-02-28T10:23:56;15.40;;;6.37;;
10467;SDS011;5281;48.878;9.394;2023-02-28T10:26:29;9.20;;;6.13;;
10467;SDS011;5281;48.878;9.394;2023-02-28T10:28:58;8.57;;;6.00;;
10467;SDS011;5281;48.878;9.394;2023-02-28T10:31:25;6.43;;;4.53;;
10467;SDS011;5281;48.878;9.394;2023-02-28T10:33:53;8.57;;;5.90;;
10467;SDS011;5281;48.878;9.394;2023-02-28T10:36:21;7.33;;;6.00;;
10467;SDS011;5281;48.878;9.394;2023-02-28T10:38:48;7.93;;;5.80;;
10467;SDS011;5281;48.878;9.394;2023-02-28T10:41:16;8.10;;;6.27;;
10467;SDS011;5281;48.878;9.394;2023-02-28T10:43:53;7.23;;;5.87;;
10467;SDS011;5281;48.878;9.394;2023-02-28T10:46:39;8.10;;;6.03;;
10467;SDS011;5281;48.878;9.394;2023-02-28T10:49:12;7.43;;;5.67;;
10467;SDS011;5281;48.878;9.394;2023-02-28T10:51:40;9.13;;;6.10;;
10467;SDS011;5281;48.878;9.394;2023-02-28T10:54:14;10.03;;;6.47;;
10467;SDS011;5281;48.878;9.394;2023-02-28T10:56:42;9.17;;;6.33;;
10467;SDS011;5281;48.878;9.394;2023-02-28T10:59:22;10.17;;;6.63;;
10467;SDS011;5281;48.878;9.394;2023-02-28T11:01:53;8.43;;;6.20;;
10467;SDS011;5281;48.878;9.394;2023-02-28T11:04:31;13.23;;;6.20;;
10467;SDS011;5281;48.878;9.394;2023-02-28T11:07:03;12.33;;;8.73;;
10467;SDS011;5281;48.878;9.394;2023-02-28T11:09:32;7.63;;;5.83;;
10467;SDS011;5281;48.878;9.394;2023-02-28T11:12:01;11.83;;;6.17;;
10467;SDS011;5281;48.878;9.394;2023-02-28T11:14:31;7.87;;;5.80;;
10467;SDS011;5281;48.878;9.394;2023-02-28T11:17:02;7.87;;;6.10;;
10467;SDS011;5281;48.878;9.394;2023-02-28T11:19:46;7.83;;;6.03;;
10467;SDS011;5281;48.878;9.394;2023-02-28T11:22:17;7.80;;;6.27;;
10467;SDS011;5281;48.878;9.394;2023-02-28T11:24:47;9.20;;;6.00;;
10467;SDS011;5281;48.878;9.394;2023-02-28T11:30:23;8.20;;;6.00;;
10467;SDS011;5281;48.878;9.394;2023-02-28T11:32:50;8.30;;;5.93;;
10467;SDS011;5281;48.878;9.394;2023-02-28T11:35:21;11.17;;;6.27;;
10467;SDS011;5281;48.878;9.394;2023-02-28T11:37:51;7.70;;;5.90;;
10467;SDS011;5281;48.878;9.394;2023-02-28T11:40:21;7.80;;;5.60;;
10467;SDS011;5281;48.878;9.394;2023-02-28T11:42:54;8.20;;;6.23;;
10467;SDS011;5281;48.878;9.394;2023-02-28T11:45:34;9.03;;;5.87;;
10467;SDS011;5281;48.878;9.394;2023-02-28T11:48:12;7.53;;;6.13;;
10467;SDS011;5281;48.878;9.394;2023-02-28T11:50:57;8.10;;;6.10;;
10467;SDS011;5281;48.878;9.394;2023-02-28T11:53:38;6.87;;;5.87;;
10467;SDS011;5281;48.878;9.394;2023-02-28T11:56:37;8.87;;;6.03;;
10467;SDS011;5281;48.878;9.394;2023-02-28T11:59:13;6.53;;;5.80;;
10467;SDS011;5281;48.878;9.394;2023-02-28T12:01:58;9.33;;;5.47;;
10467;SDS011;5281;48.878;9.394;2023-02-28T12:04:34;7.60;;;5.87;;
10467;SDS011;5281;48.878;9.394;2023-02-28T12:07:16;8.03;;;6.03;;
10467;SDS011;5281;48.878;9.394;2023-02-28T12:09:54;6.60;;;5.77;;
10467;SDS011;5281;48.878;9.394;2023-02-28T12:12:39;6.80;;;5.60;;
10467;SDS011;5281;48.878;9.394;2023-02-28T12:15:20;6.17;;;5.27;;
10467;SDS011;5281;48.878;9.394;2023-02-28T12:17:59;9.63;;;5.90;;
10467;SDS011;5281;48.878;9.394;2023-02-28T12:20:37;8.63;;;5.60;;
10467;SDS011;5281;48.878;9.394;2023-02-28T12:23:19;7.03;;;5.50;;
10467;SDS011;5281;48.878;9.394;2023-02-28T12:26:00;7.80;;;5.50;;
10467;SDS011;5281;48.878;9.394;2023-02-28T12:28:35;7.33;;;5.80;;
10467;SDS011;5281;48.878;9.394;2023-02-28T12:31:08;12.17;;;5.93;;
10467;SDS011;5281;48.878;9.394;2023-02-28T12:33:40;10.10;;;5.90;;
10467;SDS011;5281;48.878;9.394;2023-02-28T12:36:11;9.30;;;5.87;;
10467;SDS011;5281;48.878;9.394;2023-02-28T12:38:46;15.37;;;6.00;;
10467;SDS011;5281;48.878;9.394;2023-02-28T12:41:17;9.37;;;5.90;;
10467;SDS011;5281;48.878;9.394;2023-02-28T12:43:48;10.33;;;5.70;;
10467;SDS011;5281;48.878;9.394;2023-02-28T12:46:22;13.27;;;6.00;;
10467;SDS011;5281;48.878;9.394;2023-02-28T12:48:54;6.40;;;5.67;;
10467;SDS011;5281;48.878;9.394;2023-02-28T12:51:23;8.03;;;5.83;;
10467;SDS011;5281;48.878;9.394;2023-02-28T12:53:58;21.97;;;6.10;;
10467;SDS011;5281;48.878;9.394;2023-02-28T12:56:33;8.30;;;5.47;;
10467;SDS011;5281;48.878;9.394;2023-02-28T12:59:10;7.67;;;5.60;;
10467;SDS011;5281;48.878;9.394;2023-02-28T13:04:41;11.57;;;5.90;;
10467;SDS011;5281;48.878;9.394;2023-02-28T13:10:24;10.53;;;5.33;;
10467;SDS011;5281;48.878;9.394;2023-02-28T13:12:52;8.97;;;6.23;;
10467;SDS011;5281;48.878;9.394;2023-02-28T13:15:22;7.50;;;6.00;;
10467;SDS011;5281;48.878;9.394;2023-02-28T13:17:54;5.97;;;5.30;;
10467;SDS011;5281;48.878;9.394;2023-02-28T13:20:23;6.60;;;5.30;;
10467;SDS011;5281;48.878;9.394;2023-02-28T13:22:52;12.27;;;5.50;;
10467;SDS011;5281;48.878;9.394;2023-02-28T13:31:31;7.30;;;5.10;;
10467;SDS011;5281;48.878;9.394;2023-02-28T13:36:41;8.13;;;5.80;;
10467;SDS011;5281;48.878;9.394;2023-02-28T13:42:31;6.23;;;5.37;;
10467;SDS011;5281;48.878;9.394;2023-02-28T13:45:20;7.93;;;5.53;;
10467;SDS011;5281;48.878;9.394;2023-02-28T13:47:53;7.00;;;5.10;;
10467;SDS011;5281;48.878;9.394;2023-02-28T13:50:29;7.17;;;5.80;;
10467;SDS011;5281;48.878;9.394;2023-02-28T13:53:13;7.03;;;5.97;;
10467;SDS011;5281;48.878;9.394;2023-02-28T13:56:19;7.43;;;5.70;;
10467;SDS011;5281;48.878;9.394;2023-02-28T13:59:03;6.60;;;5.47;;
10467;SDS011;5281;48.878;9.394;2023-02-28T14:01:48;7.40;;;5.90;;
10467;SDS011;5281;48.878;9.394;2023-02-28T14:04:40;7.37;;;6.07;;
10467;SDS011;5281;48.878;9.394;2023-02-28T14:07:25;6.77;;;5.43;;
10467;SDS011;5281;48.878;9.394;2023-02-28T14:09:56;7.33;;;5.67;;
10467;SDS011;5281;48.878;9.394;2023-02-28T14:12:52;7.67;;;6.03;;
10467;SDS011;5281;48.878;9.394;2023-02-28T14:15:30;11.00;;;5.60;;
10467;SDS011;5281;48.878;9.394;2023-02-28T14:18:10;9.63;;;6.17;;
10467;SDS011;5281;48.878;9.394;2023-02-28T14:20:42;8.63;;;6.00;;
10467;SDS011;5281;48.878;9.394;2023-02-28T14:23:12;16.87;;;6.20;;
10467;SDS011;5281;48.878;9.394;2023-02-28T14:25:52;8.90;;;6.50;;
10467;SDS011;5281;48.878;9.394;2023-02-28T14:28:32;9.07;;;6.53;;
10467;SDS011;5281;48.878;9.394;2023-02-28T14:31:15;6.77;;;5.60;;
10467;SDS011;5281;48.878;9.394;2023-02-28T14:34:03;8.23;;;5.70;;
10467;SDS011;5281;48.878;9.394;2023-02-28T14:36:40;8.57;;;6.07;;
10467;SDS011;5281;48.878;9.394;2023-02-28T14:39:11;12.20;;;6.43;;
10467;SDS011;5281;48.878;9.394;2023-02-28T14:41:41;9.00;;;5.73;;
10467;SDS011;5281;48.878;9.394;2023-02-28T14:44:15;8.07;;;6.47;;
10467;SDS011;5281;48.878;9.394;2023-02-28T14:46:47;10.40;;;7.30;;
10467;SDS011;5281;48.878;9.394;2023-02-28T14:49:17;11.47;;;6.97;;
10467;SDS011;5281;48.878;9.394;2023-02-28T14:51:47;8.27;;;6.23;;
10467;SDS011;5281;48.878;9.394;2023-02-28T14:54:15;9.33;;;5.90;;
10467;SDS011;5281;48.878;9.394;2023-02-28T14:56:49;8.07;;;5.97;;
10467;SDS011;5281;48.878;9.394;2023-02-28T14:59:23;8.90;;;6.60;;
10467;SDS011;5281;48.878;9.394;2023-02-28T15:01:53;8.70;;;6.33;;
10467;SDS011;5281;48.878;9.394;2023-02-28T15:04:44;8.13;;;5.87;;
10467;SDS011;5281;48.878;9.394;2023-02-28T15:07:20;7.50;;;5.97;;
10467;SDS011;5281;48.878;9.394;2023-02-28T15:10:06;6.73;;;5.97;;
10467;SDS011;5281;48.878;9.394;2023-02-28T15:12:34;8.30;;;6.80;;
10467;SDS011;5281;48.878;9.394;2023-02-28T15:15:01;7.50;;;6.00;;
10467;SDS011;5281;48.878;9.394;2023-02-28T15:17:30;8.90;;;6.17;;
10467;SDS011;5281;48.878;9.394;2023-02-28T15:19:57;7.63;;;6.03;;
10467;SDS011;5281;48.878;9.394;2023-02-28T15:22:26;7.27;;;5.70;;
10467;SDS011;5281;48.878;9.394;2023-02-28T15:24:56;8.23;;;6.20;;
10467;SDS011;5281;48.878;9.394;2023-02-28T15:27:23;7.47;;;6.40;;
10467;SDS011;5281;48.878;9.394;2023-02-28T15:29:53;6.83;;;5.93;;
10467;SDS011;5281;48.878;9.394;2023-02-28T15:32:27;10.73;;;6.60;;
10467;SDS011;5281;48.878;9.394;2023-02-28T15:34:56;8.87;;;6.40;;
10467;SDS011;5281;48.878;9.394;2023-02-28T15:37:25;8.87;;;6.40;;
10467;SDS011;5281;48.878;9.394;2023-02-28T15:39:55;8.10;;;6.20;;
10467;SDS011;5281;48.878;9.394;2023-02-28T15:42:27;7.40;;;5.83;;
10467;SDS011;5281;48.878;9.394;2023-02-28T15:44:56;7.60;;;6.27;;
10467;SDS011;5281;48.878;9.394;2023-02-28T15:47:25;9.10;;;6.33;;